createdAt,value
2018-05-01T00:02:25.975Z,18.43
2018-05-01T00:04:55.556Z,18.43
2018-05-01T00:07:25.128Z,18.32
2018-05-01T00:09:54.695Z,18.28
2018-05-01T00:12:24.263Z,18.23
2018-05-01T00:14:53.824Z,18.20
2018-05-01T00:17:23.413Z,18.19
2018-05-01T00:19:53.175Z,18.10
2018-05-01T00:22:22.736Z,18.11
2018-05-01T00:24:52.327Z,18.10
2018-05-01T00:27:21.879Z,18.08
2018-05-01T00:29:51.434Z,18.06
2018-05-01T00:32:21.010Z,18.01
2018-05-01T00:34:50.589Z,18.01
2018-05-01T00:37:20.305Z,18.01
2018-05-01T00:39:50.049Z,18.00
2018-05-01T00:42:19.601Z,17.96
2018-05-01T00:44:49.152Z,17.92
2018-05-01T00:47:18.708Z,17.89
2018-05-01T00:49:48.276Z,17.84
2018-05-01T00:52:29.069Z,17.81
2018-05-01T00:54:58.380Z,17.83
2018-05-01T00:57:27.947Z,17.80
2018-05-01T00:59:57.526Z,17.80
2018-05-01T01:02:27.072Z,17.77
2018-05-01T01:04:56.394Z,17.69
2018-05-01T01:07:26.183Z,17.70
2018-05-01T01:09:55.744Z,17.64
2018-05-01T01:12:25.336Z,17.66
2018-05-01T01:14:54.971Z,17.64
2018-05-01T01:17:24.674Z,17.63
2018-05-01T01:19:54.366Z,17.64
2018-05-01T01:22:24.071Z,17.61
2018-05-01T01:24:53.655Z,17.57
2018-05-01T01:27:23.241Z,17.57
2018-05-01T01:29:52.790Z,17.54
2018-05-01T01:32:22.907Z,17.53
2018-05-01T01:34:52.527Z,17.47
2018-05-01T01:37:20.799Z,17.33
2018-05-01T01:39:49.253Z,17.32
2018-05-01T01:42:17.699Z,17.30
2018-05-01T01:44:46.180Z,17.26
2018-05-01T01:47:14.663Z,17.24
2018-05-01T01:49:42.895Z,17.22
2018-05-01T01:52:11.373Z,17.18
2018-05-01T01:54:39.835Z,17.19
2018-05-01T01:57:08.300Z,17.21
2018-05-01T01:59:36.843Z,17.15
2018-05-01T02:02:05.403Z,17.16
2018-05-01T02:04:33.652Z,17.16
2018-05-01T02:07:01.878Z,17.13
2018-05-01T02:09:30.355Z,17.12
2018-05-01T02:11:58.791Z,17.14
2018-05-01T02:14:27.234Z,17.15
2018-05-01T02:16:55.703Z,17.12
2018-05-01T02:19:24.154Z,17.09
2018-05-01T02:21:52.746Z,17.09
2018-05-01T02:24:21.206Z,17.10
2018-05-01T02:26:49.665Z,17.08
2018-05-01T02:29:17.888Z,17.05
2018-05-01T02:31:46.363Z,17.05
2018-05-01T02:34:14.810Z,17.06
2018-05-01T02:36:43.258Z,17.07
2018-05-01T02:39:11.730Z,17.05
2018-05-01T02:41:40.260Z,17.04
2018-05-01T02:44:08.724Z,17.05
2018-05-01T02:46:37.162Z,17.04
2018-05-01T02:49:05.727Z,17.04
2018-05-01T02:51:34.250Z,17.03
2018-05-01T02:54:02.931Z,17.01
2018-05-01T02:56:31.384Z,16.99
2018-05-01T02:58:59.901Z,17.00
2018-05-01T03:01:28.363Z,16.99
2018-05-01T03:03:56.807Z,16.97
2018-05-01T03:06:25.351Z,16.93
2018-05-01T03:08:53.863Z,16.96
2018-05-01T03:11:22.354Z,16.93
2018-05-01T03:13:50.938Z,16.91
2018-05-01T03:16:19.391Z,16.90
2018-05-01T03:18:47.596Z,16.87
2018-05-01T03:21:16.105Z,16.88
2018-05-01T03:23:44.556Z,16.81
2018-05-01T03:26:12.994Z,16.82
2018-05-01T03:28:41.518Z,16.81
2018-05-01T03:31:10.023Z,16.76
2018-05-01T03:33:38.482Z,16.72
2018-05-01T03:36:06.923Z,16.74
2018-05-01T03:38:35.998Z,16.74
2018-05-01T03:41:04.438Z,16.71
2018-05-01T03:43:32.897Z,16.65
2018-05-01T03:46:01.401Z,16.64
2018-05-01T03:48:29.875Z,16.60
2018-05-01T03:50:58.973Z,16.52
2018-05-01T03:53:27.444Z,16.47
2018-05-01T03:55:55.905Z,16.44
2018-05-01T03:58:24.317Z,16.36
2018-05-01T04:00:52.534Z,16.40
2018-05-01T04:03:20.712Z,16.39
2018-05-01T04:05:48.882Z,16.28
2018-05-01T04:08:17.380Z,16.18
2018-05-01T04:10:47.545Z,16.18
2018-05-01T04:13:16.109Z,16.04
2018-05-01T04:15:44.584Z,16.00
2018-05-01T04:18:13.089Z,15.96
2018-05-01T04:20:41.676Z,15.94
2018-05-01T04:23:09.926Z,15.96
2018-05-01T04:25:38.361Z,15.90
2018-05-01T04:28:06.841Z,15.90
2018-05-01T04:30:35.315Z,15.90
2018-05-01T04:33:03.776Z,15.89
2018-05-01T04:35:32.355Z,15.90
2018-05-01T04:38:00.887Z,15.88
2018-05-01T04:40:30.031Z,15.86
2018-05-01T04:42:58.496Z,15.88
2018-05-01T04:45:26.943Z,15.88
2018-05-01T04:47:55.491Z,15.86
2018-05-01T04:50:23.964Z,15.89
2018-05-01T04:52:52.418Z,15.87
2018-05-01T04:55:20.927Z,15.91
2018-05-01T04:57:49.520Z,15.92
2018-05-01T05:00:17.972Z,15.99
2018-05-01T05:02:46.444Z,16.00
2018-05-01T05:05:14.901Z,16.01
2018-05-01T05:07:43.782Z,15.97
2018-05-01T05:10:12.245Z,16.03
2018-05-01T05:12:40.727Z,15.99
2018-05-01T05:15:09.189Z,16.00
2018-05-01T05:17:37.652Z,15.96
2018-05-01T05:20:07.134Z,16.02
2018-05-01T05:22:35.810Z,16.13
2018-05-01T05:25:04.327Z,16.14
2018-05-01T05:27:32.907Z,16.20
2018-05-01T05:30:03.351Z,16.21
2018-05-01T05:32:31.831Z,16.25
2018-05-01T05:35:00.398Z,16.29
2018-05-01T05:37:28.876Z,16.29
2018-05-01T05:39:57.320Z,16.32
2018-05-01T05:42:25.785Z,16.39
2018-05-01T05:44:54.238Z,16.29
2018-05-01T05:47:22.681Z,16.37
2018-05-01T05:49:51.165Z,16.43
2018-05-01T05:52:19.625Z,16.42
2018-05-01T05:54:48.064Z,16.41
2018-05-01T05:57:16.543Z,16.45
2018-05-01T05:59:45.183Z,16.54
2018-05-01T06:02:13.642Z,16.57
2018-05-01T06:04:42.335Z,16.62
2018-05-01T06:07:11.016Z,16.70
2018-05-01T06:09:39.486Z,16.81
2018-05-01T06:12:07.955Z,16.82
2018-05-01T06:14:36.430Z,16.95
2018-05-01T06:17:04.904Z,17.05
2018-05-01T06:19:33.349Z,17.04
2018-05-01T06:22:02.001Z,17.09
2018-05-01T06:24:30.622Z,17.16
2018-05-01T06:26:59.225Z,17.26
2018-05-01T06:29:28.563Z,17.42
2018-05-01T06:31:57.074Z,17.52
2018-05-01T06:34:25.526Z,17.59
2018-05-01T06:36:53.998Z,17.70
2018-05-01T06:39:22.552Z,17.84
2018-05-01T06:41:51.039Z,17.94
2018-05-01T06:46:53.129Z,17.84
2018-05-01T06:49:21.591Z,17.90
2018-05-01T06:51:50.043Z,17.90
2018-05-01T06:54:18.531Z,17.78
2018-05-01T06:56:46.978Z,17.87
2018-05-01T06:59:15.470Z,18.05
2018-05-01T07:01:43.959Z,18.01
2018-05-01T07:04:12.537Z,18.05
2018-05-01T07:06:40.780Z,17.95
2018-05-01T07:09:09.255Z,18.16
2018-05-01T07:14:12.469Z,18.39
2018-05-01T07:16:40.920Z,18.30
2018-05-01T07:19:09.431Z,18.23
2018-05-01T07:21:38.055Z,18.31
2018-05-01T07:24:06.591Z,18.13
2018-05-01T07:26:35.066Z,17.94
2018-05-01T07:29:03.509Z,18.10
2018-05-01T07:31:31.950Z,18.20
2018-05-01T07:34:00.471Z,18.34
2018-05-01T07:36:28.935Z,18.49
2018-05-01T07:38:57.404Z,18.67
2018-05-01T07:41:25.983Z,18.76
2018-05-01T07:43:54.578Z,18.87
2018-05-01T07:46:23.035Z,18.86
2018-05-01T07:48:51.340Z,18.95
2018-05-01T07:51:19.827Z,19.01
2018-05-01T07:53:48.330Z,18.96
2018-05-01T07:56:16.803Z,19.13
2018-05-01T07:58:45.241Z,19.15
2018-05-01T08:01:13.726Z,19.23
2018-05-01T08:03:42.190Z,19.27
2018-05-01T08:06:10.464Z,19.25
2018-05-01T08:08:41.934Z,19.23
2018-05-01T08:11:10.405Z,19.24
2018-05-01T08:13:38.894Z,19.37
2018-05-01T08:16:07.383Z,19.61
2018-05-01T08:18:35.886Z,19.27
2018-05-01T08:21:04.516Z,19.23
2018-05-01T08:23:32.972Z,19.05
2018-05-01T08:26:01.429Z,19.21
2018-05-01T08:28:29.884Z,19.36
2018-05-01T08:30:58.355Z,19.52
2018-05-01T08:33:26.828Z,19.48
2018-05-01T08:35:55.269Z,19.44
2018-05-01T08:38:23.731Z,19.57
2018-05-01T08:40:52.887Z,19.19
2018-05-01T08:43:21.344Z,19.26
2018-05-01T08:45:49.810Z,19.36
2018-05-01T08:48:18.291Z,19.51
2018-05-01T08:50:46.726Z,19.50
2018-05-01T08:53:15.182Z,19.60
2018-05-01T08:55:43.722Z,19.73
2018-05-01T08:58:12.338Z,19.63
2018-05-01T09:00:40.923Z,19.74
2018-05-01T09:03:09.412Z,19.63
2018-05-01T09:05:37.868Z,19.78
2018-05-01T09:08:06.315Z,19.96
2018-05-01T09:10:34.786Z,20.04
2018-05-01T09:13:03.235Z,20.10
2018-05-01T09:15:31.685Z,20.16
2018-05-01T09:18:00.198Z,20.33
2018-05-01T09:20:28.627Z,20.40
2018-05-01T09:22:57.087Z,20.52
2018-05-01T09:25:25.617Z,20.76
2018-05-01T09:27:54.228Z,21.04
2018-05-01T09:30:22.778Z,21.24
2018-05-01T09:32:51.246Z,21.52
2018-05-01T09:35:19.673Z,21.82
2018-05-01T09:37:48.282Z,22.00
2018-05-01T09:40:16.757Z,22.07
2018-05-01T09:42:45.276Z,22.30
2018-05-01T09:45:13.779Z,22.27
2018-05-01T09:47:42.323Z,22.55
2018-05-01T09:50:10.898Z,22.77
2018-05-01T09:52:40.527Z,23.00
2018-05-01T09:55:10.136Z,23.12
2018-05-01T09:57:39.689Z,23.20
2018-05-01T10:00:09.034Z,23.14
2018-05-01T10:02:38.368Z,23.43
2018-05-01T10:05:07.927Z,23.60
2018-05-01T10:07:37.500Z,23.79
2018-05-01T10:10:07.048Z,24.06
2018-05-01T10:12:36.612Z,24.26
2018-05-01T10:15:06.183Z,24.05
2018-05-01T10:17:35.757Z,24.06
2018-05-01T10:20:05.303Z,24.38
2018-05-01T10:22:34.864Z,24.47
2018-05-01T10:25:04.267Z,24.54
2018-05-01T10:27:33.612Z,24.74
2018-05-01T10:30:02.962Z,24.87
2018-05-01T10:32:32.515Z,24.87
2018-05-01T10:35:02.178Z,25.12
2018-05-01T10:37:31.723Z,25.08
2018-05-01T10:40:01.291Z,25.30
2018-05-01T10:42:30.883Z,25.43
2018-05-01T10:45:00.664Z,25.51
2018-05-01T10:47:30.230Z,25.79
2018-05-01T10:49:59.803Z,25.97
2018-05-01T10:52:29.142Z,26.18
2018-05-01T10:54:58.719Z,25.85
2018-05-01T10:57:28.289Z,26.32
2018-05-01T10:59:57.863Z,26.42
2018-05-01T11:02:27.449Z,26.42
2018-05-01T11:04:57.034Z,26.55
2018-05-01T11:07:26.600Z,26.89
2018-05-01T11:09:56.177Z,26.91
2018-05-01T11:12:25.536Z,27.19
2018-05-01T11:14:55.111Z,27.35
2018-05-01T11:17:24.737Z,27.55
2018-05-01T11:19:54.301Z,27.88
2018-05-01T11:22:23.893Z,28.31
2018-05-01T11:24:53.483Z,28.74
2018-05-01T11:27:23.055Z,29.27
2018-05-01T11:29:52.613Z,29.71
2018-05-01T11:32:22.194Z,29.92
2018-05-01T11:34:52.333Z,30.32
2018-05-01T11:37:21.894Z,30.61
2018-05-01T11:39:51.479Z,30.84
2018-05-01T11:42:21.043Z,31.86
2018-05-01T11:44:50.650Z,29.98
2018-05-01T11:47:20.363Z,30.01
2018-05-01T11:49:49.947Z,30.11
2018-05-01T11:52:19.503Z,28.60
2018-05-01T11:54:49.065Z,29.27
2018-05-01T11:57:18.633Z,29.05
2018-05-01T11:59:48.232Z,29.39
2018-05-01T12:02:17.800Z,28.78
2018-05-01T12:04:47.394Z,27.74
2018-05-01T12:07:16.973Z,27.29
2018-05-01T12:09:46.668Z,27.24
2018-05-01T12:12:16.235Z,27.06
2018-05-01T12:14:45.795Z,26.91
2018-05-01T12:17:15.366Z,26.36
2018-05-01T12:19:44.933Z,26.08
2018-05-01T12:22:14.498Z,25.76
2018-05-01T12:24:43.716Z,25.11
2018-05-01T12:27:13.278Z,25.54
2018-05-01T12:29:42.861Z,25.34
2018-05-01T12:32:12.452Z,25.69
2018-05-01T12:34:42.018Z,25.88
2018-05-01T12:37:11.811Z,25.94
2018-05-01T12:39:41.465Z,25.91
2018-05-01T12:42:11.056Z,26.24
2018-05-01T12:44:40.418Z,26.70
2018-05-01T12:47:09.991Z,26.53
2018-05-01T12:49:39.589Z,26.81
2018-05-01T12:52:09.150Z,26.58
2018-05-01T12:54:38.739Z,26.22
2018-05-01T12:57:08.303Z,25.67
2018-05-01T12:59:40.746Z,26.30
2018-05-01T13:02:10.466Z,27.23
2018-05-01T13:04:40.031Z,27.40
2018-05-01T13:07:09.591Z,27.56
2018-05-01T13:09:39.317Z,27.49
2018-05-01T13:12:08.867Z,27.33
2018-05-01T13:14:38.413Z,26.78
2018-05-01T13:17:08.006Z,26.65
2018-05-01T13:19:37.556Z,26.67
2018-05-01T13:22:06.900Z,26.64
2018-05-01T13:24:35.999Z,26.58
2018-05-01T13:27:05.340Z,26.57
2018-05-01T13:29:34.935Z,26.55
2018-05-01T13:32:04.511Z,27.21
2018-05-01T13:34:34.199Z,27.42
2018-05-01T13:37:03.778Z,27.42
2018-05-01T13:39:33.415Z,28.41
2018-05-01T13:42:02.990Z,29.53
2018-05-01T13:44:32.629Z,30.62
2018-05-01T13:47:02.240Z,31.95
2018-05-01T13:49:31.827Z,32.42
2018-05-01T13:52:01.167Z,31.38
2018-05-01T13:54:30.736Z,32.79
2018-05-01T13:57:00.335Z,32.48
2018-05-01T13:59:29.907Z,32.66
2018-05-01T14:01:59.466Z,33.40
2018-05-01T14:04:29.075Z,34.15
2018-05-01T14:06:58.816Z,34.70
2018-05-01T14:09:28.401Z,34.95
2018-05-01T14:11:57.966Z,35.41
2018-05-01T14:14:27.512Z,35.38
2018-05-01T14:16:57.057Z,35.92
2018-05-01T14:19:26.822Z,36.63
2018-05-01T14:21:56.393Z,37.22
2018-05-01T14:24:25.959Z,37.85
2018-05-01T14:26:55.653Z,37.93
2018-05-01T14:29:25.216Z,37.20
2018-05-01T14:31:54.779Z,37.03
2018-05-01T14:34:24.345Z,36.70
2018-05-01T14:36:53.911Z,35.68
2018-05-01T14:39:23.602Z,35.57
2018-05-01T14:41:52.959Z,34.66
2018-05-01T14:44:22.567Z,34.96
2018-05-01T14:46:52.134Z,34.82
2018-05-01T14:49:21.851Z,34.66
2018-05-01T14:51:51.423Z,35.38
2018-05-01T14:54:21.002Z,35.40
2018-05-01T14:56:50.651Z,35.77
2018-05-01T14:59:19.982Z,35.86
2018-05-01T15:01:49.630Z,34.97
2018-05-01T15:04:19.318Z,34.93
2018-05-01T15:06:48.870Z,34.28
2018-05-01T15:09:18.502Z,33.30
2018-05-01T15:11:48.070Z,32.90
2018-05-01T15:14:19.614Z,32.59
2018-05-01T15:16:49.353Z,32.43
2018-05-01T15:19:19.301Z,31.97
2018-05-01T15:21:49.033Z,31.00
2018-05-01T15:24:18.594Z,29.94
2018-05-01T15:26:48.184Z,29.49
2018-05-01T15:29:18.263Z,29.10
2018-05-01T15:31:48.004Z,28.24
2018-05-01T15:34:17.576Z,27.62
2018-05-01T15:36:47.120Z,27.50
2018-05-01T15:39:16.697Z,26.99
2018-05-01T15:41:46.813Z,26.53
2018-05-01T15:44:16.399Z,26.41
2018-05-01T15:46:45.978Z,26.27
2018-05-01T15:49:15.575Z,25.91
2018-05-01T15:51:45.301Z,25.60
2018-05-01T15:54:15.774Z,25.62
2018-05-01T15:56:45.453Z,25.38
2018-05-01T15:59:15.009Z,25.23
2018-05-01T16:01:44.647Z,25.09
2018-05-01T16:04:14.259Z,25.00
2018-05-01T16:06:43.631Z,24.80
2018-05-01T16:09:13.421Z,24.70
2018-05-01T16:11:42.968Z,24.55
2018-05-01T16:14:12.680Z,24.45
2018-05-01T16:16:42.392Z,24.29
2018-05-01T16:19:11.786Z,24.14
2018-05-01T16:21:40.792Z,24.01
2018-05-01T16:24:10.399Z,23.79
2018-05-01T16:26:40.035Z,23.78
2018-05-01T16:29:09.623Z,23.56
2018-05-01T16:31:39.164Z,23.50
2018-05-01T16:34:08.829Z,23.58
2018-05-01T16:36:38.484Z,23.43
2018-05-01T16:39:08.107Z,23.44
2018-05-01T16:41:37.679Z,23.56
2018-05-01T16:44:07.220Z,23.69
2018-05-01T16:46:36.827Z,23.68
2018-05-01T16:49:06.414Z,23.75
2018-05-01T16:51:36.027Z,23.80
2018-05-01T16:54:05.585Z,23.83
2018-05-01T16:56:35.206Z,23.93
2018-05-01T16:59:04.763Z,24.16
2018-05-01T17:01:34.314Z,24.49
2018-05-01T17:04:03.655Z,24.45
2018-05-01T17:06:33.273Z,24.58
2018-05-01T17:09:02.836Z,24.54
2018-05-01T17:11:32.277Z,24.43
2018-05-01T17:14:01.850Z,24.34
2018-05-01T17:16:31.536Z,24.14
2018-05-01T17:19:01.115Z,24.12
2018-05-01T17:21:30.691Z,23.99
2018-05-01T17:24:00.262Z,23.93
2018-05-01T17:26:29.903Z,23.84
2018-05-01T17:28:59.478Z,23.78
2018-05-01T17:31:29.064Z,23.67
2018-05-01T17:33:58.732Z,23.51
2018-05-01T17:36:28.303Z,23.37
2018-05-01T17:38:57.922Z,23.32
2018-05-01T17:41:27.480Z,23.13
2018-05-01T17:43:57.043Z,23.05
2018-05-01T17:46:26.691Z,22.96
2018-05-01T17:48:56.258Z,22.86
2018-05-01T17:51:25.815Z,22.75
2018-05-01T17:53:55.390Z,22.66
2018-05-01T17:56:24.961Z,22.58
2018-05-01T17:58:54.517Z,22.53
2018-05-01T18:01:24.107Z,22.47
2018-05-01T18:03:53.662Z,22.43
2018-05-01T18:06:23.216Z,22.34
2018-05-01T18:08:52.775Z,22.32
2018-05-01T18:11:22.348Z,22.28
2018-05-01T18:13:52.235Z,22.21
2018-05-01T18:16:21.939Z,22.15
2018-05-01T18:18:51.539Z,22.15
2018-05-01T18:21:21.111Z,22.13
2018-05-01T18:23:50.975Z,22.10
2018-05-01T18:26:20.539Z,22.05
2018-05-01T18:28:50.128Z,21.94
2018-05-01T18:31:19.695Z,21.95
2018-05-01T18:33:49.612Z,21.94
2018-05-01T18:36:19.196Z,21.92
2018-05-01T18:38:48.927Z,21.89
2018-05-01T18:41:18.491Z,21.87
2018-05-01T18:43:48.045Z,21.81
2018-05-01T18:46:17.611Z,21.81
2018-05-01T18:48:46.970Z,21.79
2018-05-01T18:51:16.536Z,21.75
2018-05-01T18:53:46.230Z,21.76
2018-05-01T18:56:16.051Z,21.68
2018-05-01T18:58:45.644Z,21.61
2018-05-01T19:01:15.229Z,21.61
2018-05-01T19:03:44.828Z,21.55
2018-05-01T19:06:14.136Z,21.52
2018-05-01T19:08:44.506Z,21.51
2018-05-01T19:11:14.139Z,21.49
2018-05-01T19:13:44.403Z,21.43
2018-05-01T19:16:14.450Z,21.41
2018-05-01T19:18:44.084Z,21.42
2018-05-01T19:21:13.689Z,21.38
2018-05-01T19:23:43.270Z,21.37
2018-05-01T19:26:12.861Z,21.34
2018-05-01T19:28:42.670Z,21.33
2018-05-01T19:31:12.441Z,21.16
2018-05-01T19:33:42.168Z,21.18
2018-05-01T19:36:11.771Z,20.98
2018-05-01T19:38:41.332Z,20.97
2018-05-01T19:41:10.913Z,20.97
2018-05-01T19:43:40.504Z,20.97
2018-05-01T19:46:10.308Z,20.94
2018-05-01T19:48:39.927Z,20.88
2018-05-01T19:51:09.719Z,20.86
2018-05-01T19:53:39.440Z,20.89
2018-05-01T19:56:09.017Z,20.87
2018-05-01T19:58:38.579Z,20.87
2018-05-01T20:01:13.750Z,20.87
2018-05-01T20:03:43.327Z,20.86
2018-05-01T20:06:12.910Z,20.84
2018-05-01T20:08:42.479Z,20.78
2018-05-01T20:11:12.074Z,20.76
2018-05-01T20:13:41.673Z,20.50
2018-05-01T20:16:11.231Z,20.42
2018-05-01T20:18:40.880Z,20.30
2018-05-01T20:21:10.446Z,20.08
2018-05-01T20:23:39.998Z,20.00
2018-05-01T20:26:09.555Z,19.95
2018-05-01T20:28:39.120Z,19.91
2018-05-01T20:31:08.667Z,19.83
2018-05-01T20:33:38.107Z,19.75
2018-05-01T20:36:07.361Z,19.68
2018-05-01T20:38:36.930Z,19.61
2018-05-01T20:41:06.517Z,19.52
2018-05-01T20:43:36.097Z,19.50
2018-05-01T20:46:05.654Z,19.47
2018-05-01T20:48:35.226Z,19.47
2018-05-01T20:51:07.773Z,19.43
2018-05-01T20:53:37.375Z,19.44
2018-05-01T20:56:06.944Z,19.42
2018-05-01T20:58:36.684Z,19.43
2018-05-01T21:01:06.255Z,19.41
2018-05-01T21:03:35.828Z,19.39
2018-05-01T21:06:05.375Z,19.44
2018-05-01T21:08:34.967Z,19.48
2018-05-01T21:11:04.302Z,19.47
2018-05-01T21:13:33.866Z,19.49
2018-05-01T21:16:03.439Z,19.49
2018-05-01T21:18:32.981Z,19.51
2018-05-01T21:21:02.548Z,19.51
2018-05-01T21:23:31.881Z,19.53
2018-05-01T21:26:01.575Z,19.53
2018-05-01T21:28:31.131Z,19.53
2018-05-01T21:31:00.727Z,19.48
2018-05-01T21:33:30.396Z,19.43
2018-05-01T21:35:59.952Z,19.39
2018-05-01T21:38:29.545Z,19.38
2018-05-01T21:40:59.111Z,19.38
2018-05-01T21:43:28.657Z,19.33
2018-05-01T21:45:58.392Z,19.37
2018-05-01T21:48:27.939Z,19.13
2018-05-01T21:50:57.593Z,19.08
2018-05-01T21:53:27.162Z,18.99
2018-05-01T21:55:56.941Z,18.99
2018-05-01T21:58:26.516Z,18.97
2018-05-01T22:00:55.743Z,19.00
2018-05-01T22:03:25.308Z,18.99
2018-05-01T22:05:54.911Z,18.90
2018-05-01T22:08:24.752Z,18.89
2018-05-01T22:10:54.494Z,18.88
2018-05-01T22:13:24.052Z,18.78
2018-05-01T22:15:53.616Z,18.81
2018-05-01T22:18:23.191Z,18.84
2018-05-01T22:20:52.799Z,18.83
2018-05-01T22:23:22.371Z,18.82
2018-05-01T22:25:52.035Z,18.77
2018-05-01T22:28:21.615Z,18.69
2018-05-01T22:30:51.163Z,18.65
2018-05-01T22:33:20.719Z,18.59
2018-05-01T22:35:50.176Z,18.50
2018-05-01T22:38:19.747Z,18.50
2018-05-01T22:40:49.321Z,18.51
2018-05-01T22:43:18.884Z,18.49
2018-05-01T22:45:48.440Z,18.54
2018-05-01T22:48:18.020Z,18.58
2018-05-01T22:50:47.566Z,18.60
2018-05-01T22:53:17.132Z,18.59
2018-05-01T22:55:46.758Z,18.58
2018-05-01T22:58:16.314Z,18.58
2018-05-01T23:00:45.863Z,18.58
2018-05-01T23:03:15.446Z,18.58
2018-05-01T23:05:45.017Z,18.60
2018-05-01T23:08:14.659Z,18.61
2018-05-01T23:10:44.223Z,18.67
2018-05-01T23:13:13.767Z,18.70
2018-05-01T23:15:43.359Z,18.75
2018-05-01T23:18:12.914Z,18.70
2018-05-01T23:20:42.479Z,18.72
2018-05-01T23:23:12.048Z,18.73
2018-05-01T23:25:41.865Z,18.73
2018-05-01T23:28:11.427Z,18.65
2018-05-01T23:30:40.981Z,18.63
2018-05-01T23:33:10.551Z,18.66
2018-05-01T23:35:40.106Z,18.69
2018-05-01T23:38:09.674Z,18.70
2018-05-01T23:40:39.232Z,18.71
2018-05-01T23:43:08.786Z,18.71
2018-05-01T23:45:38.344Z,18.74
2018-05-01T23:48:07.912Z,18.71
2018-05-01T23:50:37.459Z,18.75
2018-05-01T23:53:07.029Z,18.77
2018-05-01T23:55:36.591Z,18.80
2018-05-01T23:58:06.167Z,18.85
